sensor_id;sensor_type;location;lat;lon;timestamp;pressure;altitude;pressure_sealevel;temperature;humidity
20612;BME280;10465;42.686;23.364;2023-05-01T00:00:46;94954.47;;;14.29;73.59
20612;BME280;10465;42.686;23.364;2023-05-01T00:03:12;94955.44;;;14.24;74.47
20612;BME280;10465;42.686;23.364;2023-05-01T00:05:38;94947.59;;;14.07;75.84
20612;BME280;10465;42.686;23.364;2023-05-01T00:08:03;94946.75;;;13.94;75.34
20612;BME280;10465;42.686;23.364;2023-05-01T00:10:29;94951.38;;;13.76;76.11
20612;BME280;10465;42.686;23.364;2023-05-01T00:12:55;94967.63;;;13.83;76.61
20612;BME280;10465;42.686;23.364;2023-05-01T00:15:20;94964.69;;;13.76;77.96
20612;BME280;10465;42.686;23.364;2023-05-01T00:17:46;94962.63;;;13.82;78.33
20612;BME280;10465;42.686;23.364;2023-05-01T00:20:12;94970.28;;;13.83;78.75
20612;BME280;10465;42.686;23.364;2023-05-01T00:22:38;94964.38;;;13.78;78.58
20612;BME280;10465;42.686;23.364;2023-05-01T00:25:03;94953.03;;;13.60;79.15
20612;BME280;10465;42.686;23.364;2023-05-01T00:27:29;94960.31;;;13.72;79.18
20612;BME280;10465;42.686;23.364;2023-05-01T00:29:55;94957.09;;;13.66;79.39
20612;BME280;10465;42.686;23.364;2023-05-01T00:32:20;94963.81;;;13.64;78.09
20612;BME280;10465;42.686;23.364;2023-05-01T00:34:46;94965.06;;;13.66;78.67
20612;BME280;10465;42.686;23.364;2023-05-01T00:37:12;94957.97;;;13.49;79.16
20612;BME280;10465;42.686;23.364;2023-05-01T00:39:38;94975.19;;;13.43;80.50
20612;BME280;10465;42.686;23.364;2023-05-01T00:42:03;94979.25;;;13.41;80.98
20612;BME280;10465;42.686;23.364;2023-05-01T00:44:29;94971.34;;;13.23;81.90
20612;BME280;10465;42.686;23.364;2023-05-01T00:46:55;94979.94;;;13.29;82.50
20612;BME280;10465;42.686;23.364;2023-05-01T00:49:22;94954.00;;;13.17;83.44
20612;BME280;10465;42.686;23.364;2023-05-01T00:51:49;94982.28;;;13.30;83.41
20612;BME280;10465;42.686;23.364;2023-05-01T00:54:17;94966.94;;;13.27;82.71
20612;BME280;10465;42.686;23.364;2023-05-01T00:56:46;94974.00;;;13.15;81.95
20612;BME280;10465;42.686;23.364;2023-05-01T00:59:13;94984.44;;;13.28;81.65
20612;BME280;10465;42.686;23.364;2023-05-01T01:01:40;94976.97;;;13.22;81.46
20612;BME280;10465;42.686;23.364;2023-05-01T01:04:06;94981.63;;;13.33;81.22
20612;BME280;10465;42.686;23.364;2023-05-01T01:09:22;94999.19;;;13.26;81.25
20612;BME280;10465;42.686;23.364;2023-05-01T01:12:15;94994.16;;;13.16;81.22
20612;BME280;10465;42.686;23.364;2023-05-01T01:17:46;94983.63;;;12.81;83.68
20612;BME280;10465;42.686;23.364;2023-05-01T01:20:45;94999.84;;;12.88;84.09
20612;BME280;10465;42.686;23.364;2023-05-01T01:34:39;95006.91;;;12.67;85.99
20612;BME280;10465;42.686;23.364;2023-05-01T01:37:16;95010.84;;;12.60;86.24
20612;BME280;10465;42.686;23.364;2023-05-01T01:39:59;95007.53;;;12.63;85.62
20612;BME280;10465;42.686;23.364;2023-05-01T01:42:35;95008.81;;;12.57;85.21
20612;BME280;10465;42.686;23.364;2023-05-01T01:45:05;95008.63;;;12.62;84.62
20612;BME280;10465;42.686;23.364;2023-05-01T01:47:35;95013.66;;;12.64;84.56
20612;BME280;10465;42.686;23.364;2023-05-01T01:50:05;94994.28;;;12.55;84.46
20612;BME280;10465;42.686;23.364;2023-05-01T01:52:34;94989.13;;;12.50;84.67
20612;BME280;10465;42.686;23.364;2023-05-01T01:55:04;95000.38;;;12.64;84.33
20612;BME280;10465;42.686;23.364;2023-05-01T01:57:31;94988.50;;;12.53;84.12
20612;BME280;10465;42.686;23.364;2023-05-01T01:59:57;95000.69;;;12.62;84.08
20612;BME280;10465;42.686;23.364;2023-05-01T02:02:23;94999.28;;;12.65;84.18
20612;BME280;10465;42.686;23.364;2023-05-01T02:04:51;95008.47;;;12.68;84.18
20612;BME280;10465;42.686;23.364;2023-05-01T02:07:18;95011.47;;;12.66;84.31
20612;BME280;10465;42.686;23.364;2023-05-01T02:09:45;95007.38;;;12.51;83.59
20612;BME280;10465;42.686;23.364;2023-05-01T02:12:13;95005.53;;;12.43;82.89
20612;BME280;10465;42.686;23.364;2023-05-01T02:14:41;94995.84;;;12.30;83.20
20612;BME280;10465;42.686;23.364;2023-05-01T02:17:08;95001.59;;;12.23;83.94
20612;BME280;10465;42.686;23.364;2023-05-01T02:19:36;95001.16;;;12.21;84.26
20612;BME280;10465;42.686;23.364;2023-05-01T02:22:04;95008.00;;;12.22;84.78
20612;BME280;10465;42.686;23.364;2023-05-01T02:24:31;95003.63;;;12.18;84.54
20612;BME280;10465;42.686;23.364;2023-05-01T02:27:14;94999.72;;;12.15;84.42
20612;BME280;10465;42.686;23.364;2023-05-01T02:29:40;95001.16;;;12.12;84.94
20612;BME280;10465;42.686;23.364;2023-05-01T02:32:05;95009.72;;;12.09;85.75
20612;BME280;10465;42.686;23.364;2023-05-01T02:34:33;94995.84;;;12.04;86.10
20612;BME280;10465;42.686;23.364;2023-05-01T02:36:59;94986.59;;;12.01;86.37
20612;BME280;10465;42.686;23.364;2023-05-01T02:39:25;95002.25;;;12.11;86.18
20612;BME280;10465;42.686;23.364;2023-05-01T02:41:51;94991.91;;;12.10;85.64
20612;BME280;10465;42.686;23.364;2023-05-01T02:44:19;94990.84;;;12.20;85.34
20612;BME280;10465;42.686;23.364;2023-05-01T02:46:46;95001.75;;;12.09;85.47
20612;BME280;10465;42.686;23.364;2023-05-01T02:49:15;94999.09;;;12.09;85.27
20612;BME280;10465;42.686;23.364;2023-05-01T02:51:42;95008.13;;;11.91;84.99
20612;BME280;10465;42.686;23.364;2023-05-01T02:54:08;95010.47;;;11.93;84.48
20612;BME280;10465;42.686;23.364;2023-05-01T02:56:34;94981.53;;;11.74;84.52
20612;BME280;10465;42.686;23.364;2023-05-01T02:59:00;94997.66;;;11.86;84.31
20612;BME280;10465;42.686;23.364;2023-05-01T03:01:26;95003.13;;;11.90;84.51
20612;BME280;10465;42.686;23.364;2023-05-01T03:03:52;95009.38;;;11.85;84.85
20612;BME280;10465;42.686;23.364;2023-05-01T03:06:18;95017.72;;;11.70;85.06
20612;BME280;10465;42.686;23.364;2023-05-01T03:08:43;95006.31;;;11.60;84.77
20612;BME280;10465;42.686;23.364;2023-05-01T03:11:09;94999.72;;;11.58;84.91
20612;BME280;10465;42.686;23.364;2023-05-01T03:13:34;95014.78;;;11.71;84.76
20612;BME280;10465;42.686;23.364;2023-05-01T03:16:00;95019.44;;;11.74;84.70
20612;BME280;10465;42.686;23.364;2023-05-01T03:18:26;95011.94;;;11.59;84.63
20612;BME280;10465;42.686;23.364;2023-05-01T03:20:53;95025.78;;;11.56;84.73
20612;BME280;10465;42.686;23.364;2023-05-01T03:23:19;95007.78;;;11.35;85.29
20612;BME280;10465;42.686;23.364;2023-05-01T03:25:45;95012.94;;;11.41;85.77
20612;BME280;10465;42.686;23.364;2023-05-01T03:28:11;95028.91;;;11.58;85.93
20612;BME280;10465;42.686;23.364;2023-05-01T03:30:36;95030.91;;;11.52;85.23
20612;BME280;10465;42.686;23.364;2023-05-01T03:33:02;95022.44;;;11.42;85.24
20612;BME280;10465;42.686;23.364;2023-05-01T03:35:27;95019.75;;;11.33;84.65
20612;BME280;10465;42.686;23.364;2023-05-01T03:37:53;95036.19;;;11.44;84.75
20612;BME280;10465;42.686;23.364;2023-05-01T03:40:19;95044.91;;;11.44;84.91
20612;BME280;10465;42.686;23.364;2023-05-01T03:42:44;95026.38;;;11.44;84.95
20612;BME280;10465;42.686;23.364;2023-05-01T03:45:10;95039.31;;;11.54;84.99
20612;BME280;10465;42.686;23.364;2023-05-01T03:47:35;95037.75;;;11.45;85.15
20612;BME280;10465;42.686;23.364;2023-05-01T03:50:01;95037.91;;;11.48;85.18
20612;BME280;10465;42.686;23.364;2023-05-01T03:52:27;95030.44;;;11.50;85.04
20612;BME280;10465;42.686;23.364;2023-05-01T03:54:52;95042.09;;;11.41;85.77
20612;BME280;10465;42.686;23.364;2023-05-01T03:57:18;95049.28;;;11.49;86.18
20612;BME280;10465;42.686;23.364;2023-05-01T03:59:45;95043.53;;;11.47;86.93
20612;BME280;10465;42.686;23.364;2023-05-01T04:02:11;95051.69;;;11.59;85.99
20612;BME280;10465;42.686;23.364;2023-05-01T04:04:37;95040.44;;;11.62;86.06
20612;BME280;10465;42.686;23.364;2023-05-01T04:07:02;95054.56;;;11.80;85.24
20612;BME280;10465;42.686;23.364;2023-05-01T04:09:28;95052.97;;;11.70;85.78
20612;BME280;10465;42.686;23.364;2023-05-01T04:11:54;95047.16;;;11.59;86.74
20612;BME280;10465;42.686;23.364;2023-05-01T04:14:19;95055.91;;;11.60;87.26
20612;BME280;10465;42.686;23.364;2023-05-01T04:16:45;95054.56;;;11.80;86.69
20612;BME280;10465;42.686;23.364;2023-05-01T04:19:13;95054.13;;;11.86;86.38
20612;BME280;10465;42.686;23.364;2023-05-01T04:21:40;95049.31;;;11.88;86.88
20612;BME280;10465;42.686;23.364;2023-05-01T04:24:05;95062.13;;;11.95;86.30
20612;BME280;10465;42.686;23.364;2023-05-01T04:26:31;95062.00;;;12.09;86.02
20612;BME280;10465;42.686;23.364;2023-05-01T04:28:56;95054.50;;;12.11;85.45
20612;BME280;10465;42.686;23.364;2023-05-01T04:31:21;95060.47;;;12.25;85.17
20612;BME280;10465;42.686;23.364;2023-05-01T04:33:47;95071.28;;;12.37;83.98
20612;BME280;10465;42.686;23.364;2023-05-01T04:36:13;95041.91;;;12.34;83.59
20612;BME280;10465;42.686;23.364;2023-05-01T04:38:38;95066.75;;;12.55;82.49
20612;BME280;10465;42.686;23.364;2023-05-01T04:41:04;95057.53;;;12.53;82.04
20612;BME280;10465;42.686;23.364;2023-05-01T04:43:30;95030.50;;;12.42;81.87
20612;BME280;10465;42.686;23.364;2023-05-01T04:45:55;95062.22;;;12.73;80.90
20612;BME280;10465;42.686;23.364;2023-05-01T04:48:21;95080.66;;;12.78;81.07
20612;BME280;10465;42.686;23.364;2023-05-01T04:50:46;95063.63;;;12.79;80.28
20612;BME280;10465;42.686;23.364;2023-05-01T04:53:12;95070.81;;;12.87;79.76
20612;BME280;10465;42.686;23.364;2023-05-01T04:55:38;95067.69;;;12.85;79.79
20612;BME280;10465;42.686;23.364;2023-05-01T04:58:03;95072.22;;;12.85;79.82
20612;BME280;10465;42.686;23.364;2023-05-01T05:00:29;95079.56;;;12.97;78.90
20612;BME280;10465;42.686;23.364;2023-05-01T05:02:55;95094.56;;;13.01;79.21
20612;BME280;10465;42.686;23.364;2023-05-01T05:05:20;95089.88;;;13.07;79.37
20612;BME280;10465;42.686;23.364;2023-05-01T05:07:46;95090.34;;;13.18;79.26
20612;BME280;10465;42.686;23.364;2023-05-01T05:10:12;95078.28;;;13.11;79.11
20612;BME280;10465;42.686;23.364;2023-05-01T05:12:38;95068.94;;;13.05;78.29
20612;BME280;10465;42.686;23.364;2023-05-01T05:15:04;95100.81;;;13.31;78.06
20612;BME280;10465;42.686;23.364;2023-05-01T05:17:30;95096.91;;;13.38;78.06
20612;BME280;10465;42.686;23.364;2023-05-01T05:19:55;95102.50;;;13.36;78.13
20612;BME280;10465;42.686;23.364;2023-05-01T05:22:21;95102.19;;;13.46;77.75
20612;BME280;10465;42.686;23.364;2023-05-01T05:24:52;95100.47;;;13.50;76.64
20612;BME280;10465;42.686;23.364;2023-05-01T05:27:17;95112.81;;;13.55;76.07
20612;BME280;10465;42.686;23.364;2023-05-01T05:29:43;95112.63;;;13.60;76.07
20612;BME280;10465;42.686;23.364;2023-05-01T05:32:09;95104.50;;;13.56;75.90
20612;BME280;10465;42.686;23.364;2023-05-01T05:34:34;95091.03;;;13.53;76.56
20612;BME280;10465;42.686;23.364;2023-05-01T05:37:00;95108.69;;;13.75;76.26
20612;BME280;10465;42.686;23.364;2023-05-01T05:39:25;95114.75;;;13.84;75.84
20612;BME280;10465;42.686;23.364;2023-05-01T05:41:51;95120.34;;;13.91;75.58
20612;BME280;10465;42.686;23.364;2023-05-01T05:44:18;95107.63;;;13.97;75.12
20612;BME280;10465;42.686;23.364;2023-05-01T05:46:44;95092.34;;;13.85;75.21
20612;BME280;10465;42.686;23.364;2023-05-01T05:49:09;95122.34;;;14.03;75.38
20612;BME280;10465;42.686;23.364;2023-05-01T05:51:35;95115.72;;;14.09;74.51
20612;BME280;10465;42.686;23.364;2023-05-01T05:54:00;95124.78;;;14.17;74.37
20612;BME280;10465;42.686;23.364;2023-05-01T05:56:26;95120.56;;;14.16;74.36
20612;BME280;10465;42.686;23.364;2023-05-01T05:58:51;95121.16;;;14.21;73.87
20612;BME280;10465;42.686;23.364;2023-05-01T06:01:17;95109.88;;;14.24;73.63
20612;BME280;10465;42.686;23.364;2023-05-01T06:03:42;95131.59;;;14.35;73.17
20612;BME280;10465;42.686;23.364;2023-05-01T06:06:08;95128.28;;;14.38;73.26
20612;BME280;10465;42.686;23.364;2023-05-01T06:08:33;95132.78;;;14.46;73.12
20612;BME280;10465;42.686;23.364;2023-05-01T06:11:01;95121.66;;;14.44;73.00
20612;BME280;10465;42.686;23.364;2023-05-01T06:13:26;95139.00;;;14.59;72.93
20612;BME280;10465;42.686;23.364;2023-05-01T06:15:52;95136.16;;;14.64;72.15
20612;BME280;10465;42.686;23.364;2023-05-01T06:18:17;95131.41;;;14.70;71.98
20612;BME280;10465;42.686;23.364;2023-05-01T06:20:43;95141.22;;;14.78;72.33
20612;BME280;10465;42.686;23.364;2023-05-01T06:23:09;95110.59;;;14.63;71.97
20612;BME280;10465;42.686;23.364;2023-05-01T06:25:34;95134.13;;;14.82;72.08
20612;BME280;10465;42.686;23.364;2023-05-01T06:28:01;95137.97;;;14.93;71.69
20612;BME280;10465;42.686;23.364;2023-05-01T06:30:28;95136.72;;;14.91;71.24
20612;BME280;10465;42.686;23.364;2023-05-01T06:32:53;95128.28;;;14.89;71.07
20612;BME280;10465;42.686;23.364;2023-05-01T06:35:19;95138.09;;;14.97;71.37
20612;BME280;10465;42.686;23.364;2023-05-01T06:37:45;95140.25;;;15.03;71.42
20612;BME280;10465;42.686;23.364;2023-05-01T06:40:11;95133.47;;;15.06;70.99
20612;BME280;10465;42.686;23.364;2023-05-01T06:42:37;95139.72;;;15.10;70.60
20612;BME280;10465;42.686;23.364;2023-05-01T06:45:04;95140.44;;;15.19;70.61
20612;BME280;10465;42.686;23.364;2023-05-01T06:47:29;95140.25;;;15.24;69.55
20612;BME280;10465;42.686;23.364;2023-05-01T06:49:55;95136.47;;;15.25;69.17
20612;BME280;10465;42.686;23.364;2023-05-01T06:52:20;95138.25;;;15.33;69.22
20612;BME280;10465;42.686;23.364;2023-05-01T06:54:45;95152.50;;;15.38;70.05
20612;BME280;10465;42.686;23.364;2023-05-01T06:57:11;95140.53;;;15.44;69.52
20612;BME280;10465;42.686;23.364;2023-05-01T06:59:36;95145.19;;;15.47;68.57
20612;BME280;10465;42.686;23.364;2023-05-01T07:02:02;95140.63;;;15.47;68.34
20612;BME280;10465;42.686;23.364;2023-05-01T07:04:27;95131.78;;;15.55;68.09
20612;BME280;10465;42.686;23.364;2023-05-01T07:06:53;95151.34;;;15.59;68.10
20612;BME280;10465;42.686;23.364;2023-05-01T07:09:20;95152.16;;;15.60;67.86
20612;BME280;10465;42.686;23.364;2023-05-01T07:11:45;95154.28;;;15.67;68.02
20612;BME280;10465;42.686;23.364;2023-05-01T07:14:11;95147.44;;;15.78;68.27
20612;BME280;10465;42.686;23.364;2023-05-01T07:16:36;95159.81;;;15.95;67.06
20612;BME280;10465;42.686;23.364;2023-05-01T07:19:01;95149.59;;;15.97;66.91
20612;BME280;10465;42.686;23.364;2023-05-01T07:21:27;95153.28;;;16.04;66.96
20612;BME280;10465;42.686;23.364;2023-05-01T07:23:52;95159.06;;;16.19;65.92
20612;BME280;10465;42.686;23.364;2023-05-01T07:26:18;95157.16;;;16.31;65.54
20612;BME280;10465;42.686;23.364;2023-05-01T07:28:43;95157.41;;;16.51;65.80
20612;BME280;10465;42.686;23.364;2023-05-01T07:31:09;95147.59;;;16.55;67.40
20612;BME280;10465;42.686;23.364;2023-05-01T07:33:35;95139.69;;;16.59;67.35
20612;BME280;10465;42.686;23.364;2023-05-01T07:36:01;95154.84;;;16.79;66.86
20612;BME280;10465;42.686;23.364;2023-05-01T07:38:27;95143.25;;;16.75;67.11
20612;BME280;10465;42.686;23.364;2023-05-01T07:40:53;95149.81;;;16.90;67.14
20612;BME280;10465;42.686;23.364;2023-05-01T07:43:18;95160.81;;;17.00;66.14
20612;BME280;10465;42.686;23.364;2023-05-01T07:45:54;95150.94;;;17.17;65.33
20612;BME280;10465;42.686;23.364;2023-05-01T07:48:20;95158.72;;;17.34;64.95
20612;BME280;10465;42.686;23.364;2023-05-01T07:50:46;95152.97;;;17.48;64.70
20612;BME280;10465;42.686;23.364;2023-05-01T07:53:11;95155.22;;;17.62;63.56
20612;BME280;10465;42.686;23.364;2023-05-01T07:55:36;95158.31;;;17.76;63.17
20612;BME280;10465;42.686;23.364;2023-05-01T07:58:02;95114.06;;;17.66;62.40
20612;BME280;10465;42.686;23.364;2023-05-01T08:00:28;95157.25;;;18.09;62.40
20612;BME280;10465;42.686;23.364;2023-05-01T08:02:53;95157.59;;;18.07;60.92
20612;BME280;10465;42.686;23.364;2023-05-01T08:05:19;95148.84;;;18.10;60.51
20612;BME280;10465;42.686;23.364;2023-05-01T08:07:44;95163.09;;;18.14;61.48
20612;BME280;10465;42.686;23.364;2023-05-01T08:10:10;95155.16;;;18.18;61.07
20612;BME280;10465;42.686;23.364;2023-05-01T08:12:35;95152.47;;;18.18;60.75
20612;BME280;10465;42.686;23.364;2023-05-01T08:15:01;95155.16;;;18.34;60.07
20612;BME280;10465;42.686;23.364;2023-05-01T08:17:26;95150.38;;;18.43;59.00
20612;BME280;10465;42.686;23.364;2023-05-01T08:19:52;95142.78;;;18.45;58.65
20612;BME280;10465;42.686;23.364;2023-05-01T08:22:21;95155.31;;;18.57;58.15
20612;BME280;10465;42.686;23.364;2023-05-01T08:24:46;95156.66;;;18.66;57.57
20612;BME280;10465;42.686;23.364;2023-05-01T08:27:12;95133.22;;;18.63;56.60
20612;BME280;10465;42.686;23.364;2023-05-01T08:29:37;95157.38;;;18.79;55.86
20612;BME280;10465;42.686;23.364;2023-05-01T08:32:03;95150.63;;;18.85;57.03
20612;BME280;10465;42.686;23.364;2023-05-01T08:34:28;95150.41;;;18.94;54.24
20612;BME280;10465;42.686;23.364;2023-05-01T08:36:54;95146.66;;;18.98;53.44
20612;BME280;10465;42.686;23.364;2023-05-01T08:39:19;95142.22;;;19.06;52.93
20612;BME280;10465;42.686;23.364;2023-05-01T08:41:45;95155.97;;;19.20;52.31
20612;BME280;10465;42.686;23.364;2023-05-01T08:44:13;95133.28;;;19.18;51.53
20612;BME280;10465;42.686;23.364;2023-05-01T08:49:22;95142.88;;;19.38;52.23
20612;BME280;10465;42.686;23.364;2023-05-01T08:51:49;95145.63;;;19.42;52.14
20612;BME280;10465;42.686;23.364;2023-05-01T08:54:18;95145.72;;;19.45;50.78
20612;BME280;10465;42.686;23.364;2023-05-01T08:56:46;95146.47;;;19.46;49.81
20612;BME280;10465;42.686;23.364;2023-05-01T08:59:12;95148.09;;;19.50;48.77
20612;BME280;10465;42.686;23.364;2023-05-01T09:01:40;95130.22;;;19.39;48.95
20612;BME280;10465;42.686;23.364;2023-05-01T09:04:06;95116.97;;;19.26;47.96
20612;BME280;10465;42.686;23.364;2023-05-01T09:06:32;95128.16;;;19.51;48.86
20612;BME280;10465;42.686;23.364;2023-05-01T09:08:57;95134.97;;;19.65;49.45
20612;BME280;10465;42.686;23.364;2023-05-01T09:11:24;95140.13;;;19.73;48.58
20612;BME280;10465;42.686;23.364;2023-05-01T09:13:51;95124.25;;;19.65;48.21
20612;BME280;10465;42.686;23.364;2023-05-01T09:16:18;95130.28;;;19.81;48.40
20612;BME280;10465;42.686;23.364;2023-05-01T09:18:44;95120.38;;;19.85;49.07
20612;BME280;10465;42.686;23.364;2023-05-01T09:21:10;95132.63;;;20.06;48.15
20612;BME280;10465;42.686;23.364;2023-05-01T09:23:36;95145.97;;;20.25;48.18
20612;BME280;10465;42.686;23.364;2023-05-01T09:26:06;95137.63;;;20.30;48.03
20612;BME280;10465;42.686;23.364;2023-05-01T09:28:45;95141.31;;;20.45;48.19
20612;BME280;10465;42.686;23.364;2023-05-01T09:31:27;95143.72;;;20.50;49.35
20612;BME280;10465;42.686;23.364;2023-05-01T09:33:58;95141.03;;;20.50;47.99
20612;BME280;10465;42.686;23.364;2023-05-01T09:36:25;95139.19;;;20.54;46.18
20612;BME280;10465;42.686;23.364;2023-05-01T09:38:52;95135.19;;;20.71;45.51
20612;BME280;10465;42.686;23.364;2023-05-01T09:41:18;95135.84;;;20.91;45.03
20612;BME280;10465;42.686;23.364;2023-05-01T09:43:49;95137.81;;;20.94;45.24
20612;BME280;10465;42.686;23.364;2023-05-01T09:46:15;95143.72;;;21.03;43.71
20612;BME280;10465;42.686;23.364;2023-05-01T09:51:27;95132.25;;;21.10;42.88
20612;BME280;10465;42.686;23.364;2023-05-01T09:54:01;95119.34;;;20.92;43.90
20612;BME280;10465;42.686;23.364;2023-05-01T09:56:28;95130.53;;;20.94;43.07
20612;BME280;10465;42.686;23.364;2023-05-01T09:58:56;95129.78;;;20.97;43.52
20612;BME280;10465;42.686;23.364;2023-05-01T10:01:38;95126.47;;;21.08;43.59
20612;BME280;10465;42.686;23.364;2023-05-01T10:04:04;95131.97;;;21.18;42.15
20612;BME280;10465;42.686;23.364;2023-05-01T10:06:30;95001.03;;;20.39;43.48
20612;BME280;10465;42.686;23.364;2023-05-01T10:08:56;95124.03;;;21.29;42.52
20612;BME280;10465;42.686;23.364;2023-05-01T10:11:22;95120.25;;;21.34;44.05
20612;BME280;10465;42.686;23.364;2023-05-01T10:14:07;95127.75;;;21.47;44.10
20612;BME280;10465;42.686;23.364;2023-05-01T10:16:35;95114.22;;;21.44;43.57
20612;BME280;10465;42.686;23.364;2023-05-01T10:19:02;95114.31;;;21.21;43.02
20612;BME280;10465;42.686;23.364;2023-05-01T10:21:32;95115.09;;;21.21;42.59
20612;BME280;10465;42.686;23.364;2023-05-01T10:23:58;95103.91;;;21.19;43.70
20612;BME280;10465;42.686;23.364;2023-05-01T10:26:25;95115.69;;;21.38;43.48
20612;BME280;10465;42.686;23.364;2023-05-01T10:28:51;95107.34;;;21.50;42.79
20612;BME280;10465;42.686;23.364;2023-05-01T10:31:18;95092.94;;;21.69;45.00
20612;BME280;10465;42.686;23.364;2023-05-01T10:33:44;95095.31;;;21.78;42.85
20612;BME280;10465;42.686;23.364;2023-05-01T10:36:19;95098.16;;;21.95;42.72
20612;BME280;10465;42.686;23.364;2023-05-01T10:38:46;95100.09;;;21.95;43.06
20612;BME280;10465;42.686;23.364;2023-05-01T10:41:14;95107.22;;;22.14;43.44
20612;BME280;10465;42.686;23.364;2023-05-01T10:43:41;95106.13;;;22.22;41.63
20612;BME280;10465;42.686;23.364;2023-05-01T10:51:14;95094.47;;;22.62;39.08
20612;BME280;10465;42.686;23.364;2023-05-01T10:53:42;95097.34;;;22.29;38.79
20612;BME280;10465;42.686;23.364;2023-05-01T11:04:01;95102.56;;;21.03;40.89
20612;BME280;10465;42.686;23.364;2023-05-01T11:06:28;95099.84;;;20.72;41.53
20612;BME280;10465;42.686;23.364;2023-05-01T11:08:54;95105.41;;;20.57;42.68
20612;BME280;10465;42.686;23.364;2023-05-01T11:13:58;95104.25;;;20.84;41.38
20612;BME280;10465;42.686;23.364;2023-05-01T11:19:05;95099.72;;;21.56;40.61
20612;BME280;10465;42.686;23.364;2023-05-01T11:21:33;95102.78;;;21.95;39.55
20612;BME280;10465;42.686;23.364;2023-05-01T11:24:03;95109.66;;;22.30;38.20
20612;BME280;10465;42.686;23.364;2023-05-01T11:26:29;95100.94;;;22.51;38.14
20612;BME280;10465;42.686;23.364;2023-05-01T11:28:58;95103.25;;;22.52;36.48
20612;BME280;10465;42.686;23.364;2023-05-01T11:31:25;95096.38;;;22.58;36.38
20612;BME280;10465;42.686;23.364;2023-05-01T11:33:51;95102.53;;;22.59;35.98
20612;BME280;10465;42.686;23.364;2023-05-01T11:36:20;95107.06;;;22.40;36.41
20612;BME280;10465;42.686;23.364;2023-05-01T11:38:57;95102.66;;;22.21;35.90
20612;BME280;10465;42.686;23.364;2023-05-01T11:41:24;95081.25;;;21.98;37.13
20612;BME280;10465;42.686;23.364;2023-05-01T11:43:54;95089.06;;;22.11;35.94
20612;BME280;10465;42.686;23.364;2023-05-01T11:46:28;95094.38;;;22.04;35.70
20612;BME280;10465;42.686;23.364;2023-05-01T11:48:59;95105.41;;;21.84;37.34
20612;BME280;10465;42.686;23.364;2023-05-01T11:51:26;95097.81;;;21.56;38.12
20612;BME280;10465;42.686;23.364;2023-05-01T11:54:08;95097.66;;;21.42;39.07
20612;BME280;10465;42.686;23.364;2023-05-01T11:56:35;95077.97;;;21.75;37.93
20612;BME280;10465;42.686;23.364;2023-05-01T11:59:15;95094.50;;;21.73;37.38
20612;BME280;10465;42.686;23.364;2023-05-01T12:01:43;95099.09;;;21.69;38.03
20612;BME280;10465;42.686;23.364;2023-05-01T12:04:09;95086.63;;;21.95;37.32
20612;BME280;10465;42.686;23.364;2023-05-01T12:06:42;95105.25;;;21.70;37.10
20612;BME280;10465;42.686;23.364;2023-05-01T12:09:21;95109.69;;;21.52;36.87
20612;BME280;10465;42.686;23.364;2023-05-01T12:11:51;95097.81;;;20.39;37.90
20612;BME280;10465;42.686;23.364;2023-05-01T12:14:18;95111.50;;;20.80;37.35
20612;BME280;10465;42.686;23.364;2023-05-01T12:16:44;95111.63;;;21.21;36.78
20612;BME280;10465;42.686;23.364;2023-05-01T12:19:14;95108.25;;;20.97;36.65
20612;BME280;10465;42.686;23.364;2023-05-01T12:21:39;95120.72;;;20.79;37.70
20612;BME280;10465;42.686;23.364;2023-05-01T12:24:16;95115.72;;;20.81;37.52
20612;BME280;10465;42.686;23.364;2023-05-01T12:26:43;95110.63;;;21.03;37.43
20612;BME280;10465;42.686;23.364;2023-05-01T12:29:09;95106.69;;;20.96;39.06
20612;BME280;10465;42.686;23.364;2023-05-01T12:31:36;95109.81;;;20.98;41.33
20612;BME280;10465;42.686;23.364;2023-05-01T12:34:09;95099.00;;;20.95;42.13
20612;BME280;10465;42.686;23.364;2023-05-01T12:36:36;95116.72;;;21.30;41.00
20612;BME280;10465;42.686;23.364;2023-05-01T12:39:09;95127.47;;;21.60;40.80
20612;BME280;10465;42.686;23.364;2023-05-01T12:41:45;95107.41;;;21.54;39.54
20612;BME280;10465;42.686;23.364;2023-05-01T12:44:41;95113.25;;;21.63;39.76
20612;BME280;10465;42.686;23.364;2023-05-01T12:47:08;95107.63;;;21.79;39.51
20612;BME280;10465;42.686;23.364;2023-05-01T12:49:35;95114.34;;;21.92;39.50
20612;BME280;10465;42.686;23.364;2023-05-01T12:52:05;95101.25;;;21.94;38.51
20612;BME280;10465;42.686;23.364;2023-05-01T12:54:36;95112.28;;;22.23;39.17
20612;BME280;10465;42.686;23.364;2023-05-01T12:59:34;95103.28;;;22.08;39.57
20612;BME280;10465;42.686;23.364;2023-05-01T13:02:11;95113.22;;;21.96;40.14
20612;BME280;10465;42.686;23.364;2023-05-01T13:04:39;95113.25;;;22.04;39.86
20612;BME280;10465;42.686;23.364;2023-05-01T13:07:16;95108.28;;;22.06;40.11
20612;BME280;10465;42.686;23.364;2023-05-01T13:09:53;95109.72;;;21.92;39.76
20612;BME280;10465;42.686;23.364;2023-05-01T13:12:20;95111.09;;;21.76;39.94
20612;BME280;10465;42.686;23.364;2023-05-01T13:14:45;95117.56;;;21.67;39.71
20612;BME280;10465;42.686;23.364;2023-05-01T13:17:11;95118.84;;;21.81;40.23
20612;BME280;10465;42.686;23.364;2023-05-01T13:19:52;95107.22;;;21.73;38.74
20612;BME280;10465;42.686;23.364;2023-05-01T13:22:18;95088.63;;;21.61;39.32
20612;BME280;10465;42.686;23.364;2023-05-01T13:24:53;95105.16;;;21.59;38.03
20612;BME280;10465;42.686;23.364;2023-05-01T13:27:20;95116.63;;;21.53;37.39
20612;BME280;10465;42.686;23.364;2023-05-01T13:29:52;95132.88;;;21.60;37.16
20612;BME280;10465;42.686;23.364;2023-05-01T13:32:19;95129.75;;;21.58;37.04
20612;BME280;10465;42.686;23.364;2023-05-01T13:34:45;95132.88;;;21.60;37.13